createdAt,value
2019-02-06T00:02:27.564Z,5.46
2019-02-06T00:04:57.602Z,5.67
2019-02-06T00:07:27.341Z,5.53
2019-02-06T00:09:57.272Z,5.50
2019-02-06T00:12:27.114Z,5.49
2019-02-06T00:14:57.112Z,5.46
2019-02-06T00:17:27.232Z,5.38
2019-02-06T00:19:57.186Z,5.35
2019-02-06T00:22:27.052Z,5.35
2019-02-06T00:24:56.857Z,5.30
2019-02-06T00:27:26.938Z,5.21
2019-02-06T00:29:56.897Z,5.12
2019-02-06T00:32:26.732Z,5.05
2019-02-06T00:34:56.810Z,5.04
2019-02-06T00:37:26.658Z,5.11
2019-02-06T00:39:56.633Z,5.13
2019-02-06T00:42:26.395Z,5.17
2019-02-06T00:44:56.201Z,5.26
2019-02-06T00:47:27.373Z,5.23
2019-02-06T00:49:57.471Z,5.25
2019-02-06T00:52:27.516Z,5.34
2019-02-06T00:54:57.889Z,5.31
2019-02-06T00:57:27.713Z,5.37
2019-02-06T00:59:58.493Z,5.47
2019-02-06T01:02:28.639Z,5.54
2019-02-06T01:04:59.517Z,5.55
2019-02-06T01:07:29.678Z,5.52
2019-02-06T01:09:59.721Z,5.55
2019-02-06T01:12:29.596Z,5.48
2019-02-06T01:14:59.489Z,5.54
2019-02-06T01:17:29.610Z,5.55
2019-02-06T01:19:59.552Z,5.55
2019-02-06T01:22:29.356Z,5.49
2019-02-06T01:24:59.299Z,5.46
2019-02-06T01:27:29.177Z,5.45
2019-02-06T01:29:58.919Z,5.46
2019-02-06T01:32:28.950Z,5.45
2019-02-06T01:34:58.941Z,5.53
2019-02-06T01:37:28.857Z,5.49
2019-02-06T01:40:01.026Z,5.45
2019-02-06T01:42:30.835Z,5.45
2019-02-06T01:45:00.841Z,5.44
2019-02-06T01:47:30.595Z,5.47
2019-02-06T01:50:00.734Z,5.47
2019-02-06T01:52:30.918Z,5.52
2019-02-06T01:55:01.000Z,5.47
2019-02-06T01:57:30.941Z,5.45
2019-02-06T02:00:00.779Z,5.43
2019-02-06T02:02:30.635Z,5.44
2019-02-06T02:05:00.529Z,5.37
2019-02-06T02:07:30.826Z,5.35
2019-02-06T02:10:00.884Z,5.32
2019-02-06T02:12:30.750Z,5.38
2019-02-06T02:15:00.719Z,5.35
2019-02-06T02:17:30.644Z,5.36
2019-02-06T02:20:00.762Z,5.37
2019-02-06T02:22:30.874Z,5.36
2019-02-06T02:25:00.844Z,5.35
2019-02-06T02:27:30.657Z,5.33
2019-02-06T02:30:00.528Z,5.37
2019-02-06T02:32:30.408Z,5.41
2019-02-06T02:35:00.330Z,5.43
2019-02-06T02:37:30.513Z,5.46
2019-02-06T02:40:00.523Z,5.54
2019-02-06T02:42:30.641Z,5.51
2019-02-06T02:45:00.558Z,5.45
2019-02-06T02:47:30.534Z,5.35
2019-02-06T02:50:00.535Z,5.39
2019-02-06T02:52:30.301Z,5.52
2019-02-06T02:55:00.279Z,5.62
2019-02-06T02:57:30.299Z,5.62
2019-02-06T03:00:00.053Z,5.64
2019-02-06T03:02:46.691Z,5.61
2019-02-06T03:06:09.715Z,5.56
2019-02-06T03:08:39.565Z,5.45
2019-02-06T03:11:09.569Z,5.54
2019-02-06T03:13:39.629Z,5.64
2019-02-06T03:16:09.745Z,5.63
2019-02-06T03:18:39.805Z,5.76
2019-02-06T03:21:09.979Z,5.78
2019-02-06T03:23:39.781Z,5.83
2019-02-06T03:26:09.753Z,5.74
2019-02-06T03:28:39.524Z,5.72
2019-02-06T03:31:09.522Z,5.68
2019-02-06T03:33:41.225Z,5.65
2019-02-06T03:36:11.150Z,5.52
2019-02-06T03:38:41.150Z,5.57
2019-02-06T03:41:10.982Z,5.60
2019-02-06T03:43:40.849Z,5.64
2019-02-06T03:46:10.713Z,5.67
2019-02-06T03:48:40.629Z,5.50
2019-02-06T03:51:10.571Z,5.55
2019-02-06T03:53:40.572Z,5.60
2019-02-06T03:56:10.426Z,5.54
2019-02-06T03:58:40.375Z,5.48
2019-02-06T04:01:11.444Z,5.51
2019-02-06T04:03:41.777Z,5.46
2019-02-06T04:06:11.645Z,5.46
2019-02-06T04:08:41.853Z,5.46
2019-02-06T04:11:12.800Z,5.47
2019-02-06T04:13:42.523Z,5.42
2019-02-06T04:16:12.603Z,5.42
2019-02-06T04:18:42.669Z,5.37
2019-02-06T04:21:12.458Z,5.39
2019-02-06T04:23:42.481Z,5.47
2019-02-06T04:26:12.299Z,5.33
2019-02-06T04:28:42.153Z,5.21
2019-02-06T04:31:12.226Z,5.19
2019-02-06T04:33:42.052Z,5.27
2019-02-06T04:36:11.886Z,5.34
2019-02-06T04:38:41.880Z,5.37
2019-02-06T04:41:11.721Z,5.37
2019-02-06T04:43:41.623Z,5.42
2019-02-06T04:46:12.670Z,5.56
2019-02-06T04:48:42.619Z,5.52
2019-02-06T04:51:12.639Z,5.60
2019-02-06T04:53:42.463Z,5.60
2019-02-06T04:56:12.455Z,5.59
2019-02-06T04:58:42.248Z,5.58
2019-02-06T05:01:12.149Z,5.61
2019-02-06T05:03:41.887Z,5.67
2019-02-06T05:06:11.865Z,5.60
2019-02-06T05:08:42.012Z,5.63
2019-02-06T05:11:11.934Z,5.58
2019-02-06T05:13:41.761Z,5.56
2019-02-06T05:16:11.906Z,5.47
2019-02-06T05:18:41.782Z,5.42
2019-02-06T05:21:11.601Z,5.53
2019-02-06T05:23:41.467Z,5.55
2019-02-06T05:26:11.583Z,5.43
2019-02-06T05:28:41.384Z,5.45
2019-02-06T05:31:11.414Z,5.39
2019-02-06T05:33:41.471Z,5.48
2019-02-06T05:36:11.327Z,5.45
2019-02-06T05:38:41.543Z,5.57
2019-02-06T05:41:11.486Z,5.60
2019-02-06T05:43:41.165Z,5.49
2019-02-06T05:46:11.409Z,5.53
2019-02-06T05:48:41.234Z,5.48
2019-02-06T05:51:11.057Z,5.60
2019-02-06T05:53:40.959Z,5.52
2019-02-06T05:56:10.843Z,5.62
2019-02-06T05:58:40.832Z,5.64
2019-02-06T06:01:10.819Z,5.68
2019-02-06T06:03:41.483Z,5.79
2019-02-06T06:06:12.174Z,5.87
2019-02-06T06:08:41.976Z,5.90
2019-02-06T06:11:12.186Z,5.82
2019-02-06T06:13:42.245Z,5.73
2019-02-06T06:16:12.369Z,5.79
2019-02-06T06:18:42.436Z,5.78
2019-02-06T06:21:12.291Z,5.77
2019-02-06T06:23:42.213Z,5.77
2019-02-06T06:26:12.270Z,5.75
2019-02-06T06:28:42.345Z,5.79
2019-02-06T06:31:12.050Z,5.76
2019-02-06T06:33:41.899Z,5.74
2019-02-06T06:36:11.664Z,5.75
2019-02-06T06:38:41.488Z,5.68
2019-02-06T06:41:11.342Z,5.83
2019-02-06T06:43:41.306Z,5.94
2019-02-06T06:46:11.783Z,5.96
2019-02-06T06:48:41.962Z,6.06
2019-02-06T06:51:11.783Z,5.95
2019-02-06T06:53:41.686Z,5.98
2019-02-06T06:56:11.659Z,5.98
2019-02-06T06:58:41.440Z,5.86
2019-02-06T07:01:11.756Z,5.89
2019-02-06T07:03:41.599Z,5.92
2019-02-06T07:06:11.393Z,5.97
2019-02-06T07:08:41.400Z,6.09
2019-02-06T07:11:11.344Z,6.12
2019-02-06T07:13:41.231Z,6.25
2019-02-06T07:16:11.182Z,6.17
2019-02-06T07:18:40.976Z,6.19
2019-02-06T07:21:10.825Z,6.09
2019-02-06T07:23:40.799Z,6.17
2019-02-06T07:26:10.831Z,6.44
2019-02-06T07:28:40.681Z,6.29
2019-02-06T07:31:10.896Z,6.40
2019-02-06T07:33:41.121Z,6.28
2019-02-06T07:36:11.124Z,6.30
2019-02-06T07:38:40.911Z,6.14
2019-02-06T07:41:10.770Z,6.16
2019-02-06T07:43:41.056Z,5.89
2019-02-06T07:46:10.930Z,6.11
2019-02-06T07:48:40.954Z,6.24
2019-02-06T07:51:10.816Z,6.04
2019-02-06T07:53:40.697Z,6.13
2019-02-06T07:56:10.680Z,6.22
2019-02-06T07:58:41.227Z,6.34
2019-02-06T08:01:11.875Z,6.42
2019-02-06T08:03:41.722Z,6.47
2019-02-06T08:06:11.972Z,6.47
2019-02-06T08:08:41.829Z,6.49
2019-02-06T08:11:11.661Z,6.46
2019-02-06T08:13:42.247Z,6.52
2019-02-06T08:16:13.054Z,6.36
2019-02-06T08:18:42.981Z,6.11
2019-02-06T08:21:13.138Z,6.13
2019-02-06T08:23:43.032Z,6.14
2019-02-06T08:26:13.014Z,6.09
2019-02-06T08:28:43.268Z,6.33
2019-02-06T08:31:13.020Z,6.25
2019-02-06T08:33:43.102Z,6.10
2019-02-06T08:36:12.910Z,5.94
2019-02-06T08:38:47.978Z,5.95
2019-02-06T08:41:14.260Z,6.07
2019-02-06T08:43:43.987Z,5.77
2019-02-06T08:46:15.068Z,5.85
2019-02-06T08:48:45.138Z,5.83
2019-02-06T08:51:14.964Z,5.82
2019-02-06T08:53:46.131Z,5.57
2019-02-06T08:56:16.571Z,5.68
2019-02-06T08:58:46.548Z,5.47
2019-02-06T09:01:16.512Z,5.69
2019-02-06T09:03:46.479Z,5.41
2019-02-06T09:06:16.400Z,5.57
2019-02-06T09:08:46.311Z,5.34
2019-02-06T09:11:16.449Z,5.22
2019-02-06T09:13:46.388Z,5.37
2019-02-06T09:16:16.396Z,5.42
2019-02-06T09:18:46.395Z,5.39
2019-02-06T09:21:16.405Z,5.48
2019-02-06T09:23:46.409Z,5.59
2019-02-06T09:26:16.237Z,5.58
2019-02-06T09:28:46.020Z,5.39
2019-02-06T09:31:17.133Z,5.48
2019-02-06T09:33:47.034Z,5.48
2019-02-06T09:36:16.939Z,5.52
2019-02-06T09:38:48.091Z,5.46
2019-02-06T09:41:17.915Z,5.48
2019-02-06T09:43:47.812Z,5.34
2019-02-06T09:46:17.919Z,5.24
2019-02-06T09:48:47.984Z,5.17
2019-02-06T09:51:19.345Z,5.06
2019-02-06T09:53:49.690Z,4.99
2019-02-06T09:56:19.648Z,4.97
2019-02-06T09:58:49.817Z,4.90
2019-02-06T10:01:21.522Z,4.90
2019-02-06T10:03:51.628Z,4.79
2019-02-06T10:06:21.362Z,4.78
2019-02-06T10:08:51.581Z,4.75
2019-02-06T10:11:21.381Z,4.75
2019-02-06T10:13:51.417Z,4.71
2019-02-06T10:16:21.164Z,4.61
2019-02-06T10:18:52.315Z,4.53
2019-02-06T10:21:22.193Z,4.39
2019-02-06T10:23:52.118Z,4.29
2019-02-06T10:26:22.073Z,4.32
2019-02-06T10:28:51.948Z,4.32
2019-02-06T10:31:21.863Z,4.28
2019-02-06T10:33:51.751Z,4.23
2019-02-06T10:36:21.716Z,4.21
2019-02-06T10:38:51.641Z,4.20
2019-02-06T10:41:21.567Z,4.28
2019-02-06T10:43:51.431Z,4.25
2019-02-06T10:46:21.638Z,4.19
2019-02-06T10:48:51.538Z,4.18
2019-02-06T10:51:21.392Z,4.17
2019-02-06T10:53:51.342Z,4.19
2019-02-06T10:56:21.174Z,4.22
2019-02-06T10:58:51.171Z,4.21
2019-02-06T11:01:21.290Z,4.25
2019-02-06T11:03:51.375Z,4.27
2019-02-06T11:06:21.931Z,4.34
2019-02-06T11:08:51.702Z,4.28
2019-02-06T11:11:21.833Z,4.27
2019-02-06T11:13:51.944Z,4.42
2019-02-06T11:16:22.172Z,4.29
2019-02-06T11:18:52.415Z,4.16
2019-02-06T11:21:22.890Z,4.37
2019-02-06T11:23:52.689Z,4.46
2019-02-06T11:26:23.872Z,4.58
2019-02-06T11:28:53.879Z,4.66
2019-02-06T11:31:23.779Z,4.60
2019-02-06T11:33:53.617Z,4.52
2019-02-06T11:36:24.459Z,4.30
2019-02-06T11:38:54.551Z,4.44
2019-02-06T11:41:24.414Z,4.61
2019-02-06T11:43:54.391Z,4.50
2019-02-06T11:46:24.492Z,4.55
2019-02-06T11:48:54.898Z,4.61
2019-02-06T11:51:24.752Z,4.63
2019-02-06T11:53:54.672Z,4.53
2019-02-06T11:56:24.461Z,4.46
2019-02-06T11:58:54.459Z,4.49
2019-02-06T12:01:34.687Z,4.50
2019-02-06T12:04:04.739Z,4.58
2019-02-06T12:06:34.569Z,4.54
2019-02-06T12:09:07.451Z,4.55
2019-02-06T12:11:37.250Z,4.60
2019-02-06T12:14:07.271Z,4.62
2019-02-06T12:16:37.696Z,4.69
2019-02-06T12:19:08.005Z,4.70
2019-02-06T12:21:37.918Z,4.73
2019-02-06T12:24:08.217Z,4.83
2019-02-06T12:26:37.959Z,4.68
2019-02-06T12:29:07.901Z,4.71
2019-02-06T12:31:37.940Z,4.84
2019-02-06T12:34:08.006Z,4.76
2019-02-06T12:36:39.100Z,4.66
2019-02-06T12:39:11.141Z,4.66
2019-02-06T12:41:41.038Z,4.70
2019-02-06T12:44:12.329Z,4.70
2019-02-06T12:46:42.856Z,4.81
2019-02-06T12:49:14.580Z,4.73
2019-02-06T12:51:44.765Z,4.83
2019-02-06T12:54:14.765Z,4.92
2019-02-06T12:56:44.533Z,4.93
2019-02-06T12:59:14.513Z,5.00
2019-02-06T13:01:44.947Z,5.04
2019-02-06T13:04:14.809Z,5.10
2019-02-06T13:06:44.716Z,5.16
2019-02-06T13:09:15.093Z,5.02
2019-02-06T13:11:44.972Z,5.06
2019-02-06T13:14:14.883Z,5.18
2019-02-06T13:16:45.040Z,5.19
2019-02-06T13:19:14.813Z,5.20
2019-02-06T13:21:44.976Z,4.97
2019-02-06T13:24:15.339Z,5.04
2019-02-06T13:26:45.257Z,5.13
2019-02-06T13:29:15.402Z,5.08
2019-02-06T13:31:46.704Z,5.06
2019-02-06T13:34:16.690Z,5.08
2019-02-06T13:36:46.546Z,5.08
2019-02-06T13:39:17.686Z,5.15
2019-02-06T13:41:47.553Z,5.19
2019-02-06T13:44:17.783Z,5.12
2019-02-06T13:46:53.193Z,5.06
2019-02-06T13:49:19.459Z,4.96
2019-02-06T13:51:49.463Z,5.10
2019-02-06T13:54:19.409Z,5.13
2019-02-06T13:56:50.658Z,5.11
2019-02-06T13:59:20.654Z,5.10
2019-02-06T14:01:50.797Z,5.11
2019-02-06T14:04:20.884Z,5.18
2019-02-06T14:06:50.704Z,5.09
2019-02-06T14:09:24.351Z,5.12
2019-02-06T14:11:52.543Z,5.11
2019-02-06T14:14:22.457Z,5.11
2019-02-06T14:16:52.744Z,5.12
2019-02-06T14:19:22.861Z,5.13
2019-02-06T14:21:52.914Z,5.12
2019-02-06T14:24:37.210Z,5.00
2019-02-06T14:27:37.986Z,5.01
2019-02-06T14:30:52.080Z,5.09
2019-02-06T14:33:59.894Z,5.04
2019-02-06T14:37:11.755Z,5.01
2019-02-06T14:40:06.850Z,5.07
2019-02-06T14:42:45.197Z,5.06
2019-02-06T14:45:53.491Z,5.06
2019-02-06T14:49:01.905Z,4.96
2019-02-06T14:52:06.412Z,5.00
2019-02-06T14:54:49.666Z,4.92
2019-02-06T14:57:57.160Z,4.99
2019-02-06T15:01:00.058Z,4.95
2019-02-06T15:03:43.601Z,4.92
2019-02-06T15:06:57.224Z,4.87
2019-02-06T15:10:08.923Z,4.92
2019-02-06T15:13:12.350Z,4.86
2019-02-06T15:15:53.935Z,4.88
2019-02-06T15:18:58.237Z,4.81
2019-02-06T15:22:04.644Z,4.88
2019-02-06T15:24:45.991Z,4.87
2019-02-06T15:27:57.693Z,4.87
2019-02-06T15:31:10.220Z,4.80
2019-02-06T15:34:22.417Z,4.83
2019-02-06T15:37:23.300Z,4.83
2019-02-06T15:40:20.677Z,4.77
2019-02-06T15:43:26.401Z,4.80
2019-02-06T15:46:25.570Z,4.81
2019-02-06T15:49:11.834Z,4.87
2019-02-06T15:52:17.811Z,4.85
2019-02-06T15:55:12.494Z,4.87
2019-02-06T15:58:17.994Z,4.80
2019-02-06T16:01:19.503Z,4.77
2019-02-06T16:04:51.803Z,4.78
2019-02-06T16:07:59.792Z,4.76
2019-02-06T16:10:55.860Z,4.76
2019-02-06T16:14:01.980Z,4.78
2019-02-06T16:16:48.088Z,4.80
2019-02-06T16:20:04.837Z,4.79
2019-02-06T16:22:49.723Z,4.87
2019-02-06T16:25:41.932Z,4.88
2019-02-06T16:28:47.380Z,4.98
2019-02-06T16:31:45.352Z,5.03
2019-02-06T16:34:50.668Z,5.05
2019-02-06T16:38:10.005Z,5.03
2019-02-06T16:41:35.477Z,5.09
2019-02-06T16:44:31.549Z,4.98
2019-02-06T16:47:45.832Z,4.94
2019-02-06T16:50:26.708Z,5.04
2019-02-06T16:53:36.600Z,5.00
2019-02-06T16:56:33.692Z,5.03
2019-02-06T16:59:49.034Z,4.99
2019-02-06T17:02:57.517Z,4.84
2019-02-06T17:05:57.496Z,4.75
2019-02-06T17:09:05.544Z,4.88
2019-02-06T17:12:10.730Z,4.86
2019-02-06T17:15:33.023Z,4.89
2019-02-06T17:18:35.355Z,4.93
2019-02-06T17:21:40.017Z,4.91
2019-02-06T17:24:33.158Z,4.90
2019-02-06T17:27:22.780Z,4.95
2019-02-06T17:30:12.944Z,4.98
2019-02-06T17:33:12.632Z,4.95
2019-02-06T17:36:21.187Z,5.05
2019-02-06T17:39:26.593Z,5.07
2019-02-06T17:42:24.809Z,5.10
2019-02-06T17:45:32.379Z,5.04
2019-02-06T17:48:38.966Z,5.02
2019-02-06T17:51:38.064Z,4.98
2019-02-06T17:54:52.428Z,4.93
2019-02-06T17:57:22.234Z,4.99
2019-02-06T17:59:52.021Z,5.05
2019-02-06T18:02:21.787Z,5.09
2019-02-06T18:04:51.572Z,5.11
2019-02-06T18:07:21.416Z,5.16
2019-02-06T18:09:51.188Z,5.00
2019-02-06T18:12:26.534Z,4.97
2019-02-06T18:14:52.896Z,4.99
2019-02-06T18:17:22.669Z,4.97
2019-02-06T18:19:52.392Z,4.93
2019-02-06T18:22:22.590Z,4.97
2019-02-06T18:24:52.420Z,4.90
2019-02-06T18:27:22.237Z,4.89
2019-02-06T18:29:53.737Z,4.80
2019-02-06T18:32:23.821Z,4.81
2019-02-06T18:34:53.868Z,4.95
2019-02-06T18:37:23.649Z,4.94
2019-02-06T18:39:54.725Z,4.87
2019-02-06T18:42:24.660Z,4.90
2019-02-06T18:44:54.630Z,4.89
2019-02-06T18:47:24.800Z,4.94
2019-02-06T18:49:54.633Z,4.95
2019-02-06T18:52:24.608Z,5.03
2019-02-06T18:54:55.569Z,4.87
2019-02-06T18:57:25.334Z,4.82
2019-02-06T18:59:55.271Z,4.82
2019-02-06T19:02:25.342Z,4.90
2019-02-06T19:04:55.236Z,4.55
2019-02-06T19:07:25.245Z,4.56
2019-02-06T19:09:55.324Z,4.49
2019-02-06T19:12:25.303Z,4.46
2019-02-06T19:14:55.177Z,4.42
2019-02-06T19:17:25.002Z,4.34
2019-02-06T19:19:54.870Z,4.46
2019-02-06T19:22:25.353Z,4.45
2019-02-06T19:24:55.241Z,4.39
2019-02-06T19:27:25.125Z,4.41
2019-02-06T19:29:54.998Z,4.44
2019-02-06T19:32:26.121Z,4.47
2019-02-06T19:34:57.061Z,4.56
2019-02-06T19:37:27.019Z,4.69
2019-02-06T19:39:57.016Z,4.62
2019-02-06T19:42:26.912Z,4.57
2019-02-06T19:44:57.010Z,4.67
2019-02-06T19:47:28.784Z,4.75
2019-02-06T19:49:58.397Z,4.73
2019-02-06T19:52:29.472Z,4.81
2019-02-06T19:54:59.479Z,4.73
2019-02-06T19:57:29.301Z,4.70
2019-02-06T20:00:00.635Z,4.67
2019-02-06T20:02:30.559Z,4.75
2019-02-06T20:05:01.614Z,4.67
2019-02-06T20:07:31.352Z,4.66
2019-02-06T20:10:01.213Z,4.63
2019-02-06T20:12:31.028Z,4.57
2019-02-06T20:15:00.738Z,4.54
2019-02-06T20:17:30.555Z,4.53
2019-02-06T20:20:00.369Z,4.55
2019-02-06T20:22:31.432Z,4.58
2019-02-06T20:25:01.212Z,4.53
2019-02-06T20:27:31.460Z,4.60
2019-02-06T20:30:01.314Z,4.52
2019-02-06T20:32:31.207Z,4.54
2019-02-06T20:35:01.194Z,4.47
2019-02-06T20:37:30.976Z,4.41
2019-02-06T20:40:00.794Z,4.42
2019-02-06T20:42:30.550Z,4.41
2019-02-06T20:45:00.478Z,4.43
2019-02-06T20:47:30.341Z,4.47
2019-02-06T20:50:00.331Z,4.45
2019-02-06T20:52:30.219Z,4.48
2019-02-06T20:55:00.308Z,4.51
2019-02-06T20:57:30.145Z,4.53
2019-02-06T21:00:00.375Z,4.56
2019-02-06T21:02:30.035Z,4.59
2019-02-06T21:04:59.696Z,4.61
2019-02-06T21:07:30.755Z,4.63
2019-02-06T21:10:00.718Z,4.66
2019-02-06T21:12:30.481Z,4.69
2019-02-06T21:15:00.379Z,4.65
2019-02-06T21:17:30.281Z,4.66
2019-02-06T21:20:00.311Z,4.67
2019-02-06T21:22:30.264Z,4.71
2019-02-06T21:25:00.179Z,4.72
2019-02-06T21:27:29.980Z,4.71
2019-02-06T21:29:59.903Z,4.70
2019-02-06T21:32:29.893Z,4.71
2019-02-06T21:34:59.738Z,4.79
2019-02-06T21:37:29.625Z,4.80
2019-02-06T21:39:59.665Z,4.75
2019-02-06T21:42:29.483Z,4.78
2019-02-06T21:44:59.459Z,4.85
2019-02-06T21:47:29.302Z,4.80
2019-02-06T21:49:59.215Z,4.80
2019-02-06T21:52:28.985Z,4.81
2019-02-06T21:54:58.872Z,4.82
2019-02-06T21:57:28.865Z,4.89
2019-02-06T21:59:59.938Z,4.84
2019-02-06T22:02:29.719Z,4.87
2019-02-06T22:04:59.422Z,4.92
2019-02-06T22:07:29.195Z,4.89
2019-02-06T22:09:58.951Z,4.90
2019-02-06T22:12:28.883Z,4.92
2019-02-06T22:14:58.819Z,4.85
2019-02-06T22:17:28.609Z,4.91
2019-02-06T22:19:58.416Z,4.90
2019-02-06T22:22:28.191Z,4.92
2019-02-06T22:24:57.967Z,4.96
2019-02-06T22:27:27.779Z,4.93
2019-02-06T22:29:57.634Z,4.98
2019-02-06T22:32:27.288Z,4.93
2019-02-06T22:34:58.462Z,4.87
2019-02-06T22:37:28.423Z,4.86
2019-02-06T22:39:58.490Z,4.85
2019-02-06T22:42:28.486Z,4.76
2019-02-06T22:44:58.774Z,4.71
2019-02-06T22:47:28.417Z,4.74
2019-02-06T22:49:58.656Z,4.65
2019-02-06T22:52:28.618Z,4.62
2019-02-06T22:54:58.711Z,4.62
2019-02-06T22:57:28.771Z,4.60
2019-02-06T22:59:58.621Z,4.56
2019-02-06T23:02:28.332Z,4.55
2019-02-06T23:04:58.197Z,4.59
2019-02-06T23:07:28.063Z,4.59
2019-02-06T23:09:57.684Z,4.61
2019-02-06T23:12:27.513Z,4.64
2019-02-06T23:14:57.302Z,4.60
2019-02-06T23:17:27.021Z,4.60
2019-02-06T23:19:56.983Z,4.48
2019-02-06T23:22:27.258Z,4.31
2019-02-06T23:24:56.969Z,4.12
2019-02-06T23:27:26.830Z,4.15
2019-02-06T23:29:56.744Z,4.09
2019-02-06T23:32:26.642Z,4.06
2019-02-06T23:34:56.549Z,4.00
2019-02-06T23:37:26.621Z,3.97
2019-02-06T23:39:56.619Z,3.89
2019-02-06T23:42:26.492Z,3.86
2019-02-06T23:44:56.324Z,3.85
2019-02-06T23:47:26.173Z,3.85
2019-02-06T23:49:55.942Z,3.80
2019-02-06T23:52:25.845Z,3.89
2019-02-06T23:54:55.611Z,3.94
2019-02-06T23:57:25.269Z,3.94
2019-02-06T23:59:55.185Z,3.94
